Time;durP1;ratioP1;P1;durP2;ratioP2;P2;SDS_P1;SDS_P2;PMS_P1;PMS_P2;Temp;Humidity;BMP_temperature;BMP_pressure;BME280_temperature;BME280_humidity;BME280_pressure;Samples;Min_cycle;Max_cycle;Signal;HPM_P1;HPM_P2
2021/10/27 00:00:05;;;;;;;5.10;3.30;;;13.70;68.30;;;;;;4993738;28;20461;-75
2021/10/27 00:02:31;;;;;;;4.63;3.60;;;13.70;70.20;;;;;;5016903;28;20793;-76
2021/10/27 00:04:56;;;;;;;5.33;3.83;;;13.80;68.70;;;;;;5018444;28;20464;-74
2021/10/27 00:07:23;;;;;;;6.63;3.70;;;13.80;68.90;;;;;;5015202;28;20177;-75
2021/10/27 00:09:50;;;;;;;4.40;3.53;;;13.70;69.50;;;;;;5010881;28;20251;-74
2021/10/27 00:12:16;;;;;;;4.30;3.40;;;13.70;70.00;;;;;;4994788;28;20468;-76
2021/10/27 00:14:42;;;;;;;3.73;3.40;;;13.80;69.70;;;;;;5012599;28;20923;-74
2021/10/27 00:17:07;;;;;;;6.47;3.60;;;13.80;69.40;;;;;;5012617;28;20410;-75
2021/10/27 00:19:33;;;;;;;6.87;3.70;;;13.70;69.80;;;;;;5011023;28;20418;-75
2021/10/27 00:21:58;;;;;;;8.83;3.57;;;13.80;70.80;;;;;;5012682;28;20188;-75
2021/10/27 00:24:24;;;;;;;3.37;3.07;;;13.80;69.20;;;;;;5012435;28;20272;-76
2021/10/27 00:26:50;;;;;;;5.60;3.60;;;13.80;69.50;;;;;;5010916;28;20189;-75
2021/10/27 00:29:15;;;;;;;8.60;4.50;;;13.70;71.10;;;;;;5011965;28;20259;-75
2021/10/27 00:31:41;;;;;;;12.73;3.60;;;13.70;72.40;;;;;;4992479;28;20213;-75
2021/10/27 00:34:06;;;;;;;5.47;3.77;;;13.70;73.50;;;;;;5009562;28;20186;-75
2021/10/27 00:36:32;;;;;;;9.43;3.97;;;13.70;72.80;;;;;;5012544;28;20609;-75
2021/10/27 00:38:58;;;;;;;7.53;3.33;;;13.70;73.70;;;;;;5012613;28;20175;-75
2021/10/27 00:41:23;;;;;;;7.30;3.40;;;13.70;73.90;;;;;;5011334;28;20177;-75
2021/10/27 00:43:49;;;;;;;4.17;3.30;;;13.70;73.50;;;;;;5011547;28;20191;-75
2021/10/27 00:46:20;;;;;;;7.23;3.70;;;13.60;75.10;;;;;;5012737;28;20206;-75
2021/10/27 00:48:47;;;;;;;5.30;3.27;;;13.60;75.80;;;;;;5012599;28;20285;-76
2021/10/27 00:51:12;;;;;;;5.17;3.57;;;13.60;75.60;;;;;;5013294;28;20465;-75
2021/10/27 00:53:39;;;;;;;6.83;4.17;;;13.70;75.20;;;;;;5015914;28;20396;-75
2021/10/27 00:56:05;;;;;;;4.40;2.80;;;13.80;73.90;;;;;;5016048;28;20594;-76
2021/10/27 00:58:31;;;;;;;7.50;3.67;;;13.80;73.10;;;;;;5015339;28;20402;-75
2021/10/27 01:00:57;;;;;;;7.57;3.20;;;13.80;72.20;;;;;;5015784;28;20506;-74
2021/10/27 01:03:23;;;;;;;3.80;3.00;;;13.80;73.40;;;;;;5014946;28;20592;-75
2021/10/27 01:05:49;;;;;;;6.60;3.90;;;13.70;74.30;;;;;;5015481;28;20423;-75
2021/10/27 01:08:15;;;;;;;5.77;4.27;;;13.70;74.10;;;;;;5015397;28;20429;-75
2021/10/27 01:10:41;;;;;;;6.17;4.30;;;13.70;74.70;;;;;;5013667;28;20421;-75
2021/10/27 01:13:07;;;;;;;6.73;3.50;;;13.70;73.70;;;;;;5001157;28;20278;-75
2021/10/27 01:15:41;;;;;;;6.50;4.10;;;13.70;74.20;;;;;;5015674;28;20429;-75
2021/10/27 01:18:08;;;;;;;7.80;3.90;;;13.70;74.40;;;;;;5015691;28;20177;-75
2021/10/27 01:20:34;;;;;;;7.60;4.20;;;13.80;73.50;;;;;;5015205;28;20395;-75
2021/10/27 01:23:00;;;;;;;4.60;3.30;;;13.70;73.70;;;;;;5014943;28;20448;-74
2021/10/27 01:25:26;;;;;;;9.77;3.40;;;13.70;74.40;;;;;;5010686;28;20449;-75
2021/10/27 01:27:53;;;;;;;9.57;4.90;;;13.80;73.60;;;;;;5015125;28;20174;-75
2021/10/27 01:30:21;;;;;;;9.10;3.90;;;13.70;74.10;;;;;;5015194;28;20557;-75
2021/10/27 01:32:47;;;;;;;7.33;3.10;;;13.70;74.40;;;;;;5014194;28;20971;-75
2021/10/27 01:35:14;;;;;;;4.40;3.90;;;13.70;75.00;;;;;;5014926;28;20414;-77
2021/10/27 01:37:40;;;;;;;5.87;4.03;;;13.70;75.70;;;;;;5017763;28;20939;-75
2021/10/27 01:40:09;;;;;;;4.90;3.67;;;13.60;75.40;;;;;;5000789;28;20409;-76
2021/10/27 01:42:35;;;;;;;12.80;4.00;;;13.70;75.80;;;;;;5001462;28;20437;-76
2021/10/27 01:45:02;;;;;;;4.60;3.30;;;13.70;74.90;;;;;;5015022;28;20629;-76
2021/10/27 01:47:27;;;;;;;4.40;3.20;;;13.70;74.40;;;;;;5014805;28;20170;-75
2021/10/27 01:49:53;;;;;;;7.27;4.00;;;13.70;74.40;;;;;;5029946;28;20485;-76
2021/10/27 01:52:18;;;;;;;4.07;3.10;;;13.70;74.10;;;;;;5014708;28;20226;-76
2021/10/27 01:54:44;;;;;;;3.30;3.00;;;13.70;74.80;;;;;;5014462;28;20284;-76
2021/10/27 01:57:11;;;;;;;10.63;3.33;;;13.70;74.70;;;;;;5005798;28;20652;-76
2021/10/27 01:59:37;;;;;;;5.43;3.40;;;13.70;75.50;;;;;;4996007;28;20417;-77
2021/10/27 02:02:03;;;;;;;6.00;3.73;;;13.70;76.20;;;;;;4995301;28;20413;-75
2021/10/27 02:04:29;;;;;;;7.83;2.97;;;13.60;76.50;;;;;;4994302;28;20453;-77
2021/10/27 02:06:55;;;;;;;6.87;3.40;;;13.70;74.90;;;;;;4998111;28;20779;-75
2021/10/27 02:09:21;;;;;;;5.93;4.30;;;13.70;74.80;;;;;;5013505;28;20178;-76
2021/10/27 02:11:47;;;;;;;17.20;4.13;;;13.70;74.00;;;;;;5012923;28;20472;-76
2021/10/27 02:14:12;;;;;;;10.53;3.50;;;13.80;74.10;;;;;;5013320;28;20418;-75
2021/10/27 02:16:38;;;;;;;13.43;4.23;;;13.80;73.20;;;;;;5013781;28;20178;-75
2021/10/27 02:19:06;;;;;;;9.53;4.20;;;13.80;72.80;;;;;;5013412;28;20221;-74
2021/10/27 02:21:32;;;;;;;7.90;4.10;;;13.70;74.00;;;;;;5003791;28;20420;-74
2021/10/27 02:23:58;;;;;;;10.47;4.37;;;13.70;74.40;;;;;;4996582;28;20428;-75
2021/10/27 02:26:24;;;;;;;11.60;4.93;;;13.70;74.00;;;;;;5013149;28;20471;-75
2021/10/27 02:28:50;;;;;;;7.70;4.63;;;13.70;73.40;;;;;;5013282;28;20174;-75
2021/10/27 02:31:16;;;;;;;9.47;4.70;;;13.70;73.40;;;;;;5012872;28;20426;-75
2021/10/27 02:33:42;;;;;;;9.07;4.23;;;13.70;72.90;;;;;;5012815;28;20412;-75
2021/10/27 02:36:07;;;;;;;10.07;4.60;;;13.70;72.60;;;;;;4998650;28;20595;-76
2021/10/27 02:38:33;;;;;;;8.97;4.87;;;13.80;71.70;;;;;;4996671;28;20177;-76
2021/10/27 02:40:59;;;;;;;6.00;4.30;;;13.70;72.40;;;;;;5010091;28;20202;-76
2021/10/27 02:43:24;;;;;;;5.10;4.60;;;13.70;72.10;;;;;;5013833;28;20534;-78
2021/10/27 02:45:50;;;;;;;10.27;5.50;;;13.80;71.00;;;;;;5021702;28;20437;-76
2021/10/27 02:48:16;;;;;;;8.70;4.80;;;13.80;69.70;;;;;;5020295;28;20234;-76
2021/10/27 02:50:42;;;;;;;8.53;4.30;;;13.80;69.80;;;;;;5013511;28;20205;-75
2021/10/27 02:53:08;;;;;;;5.30;4.47;;;13.80;69.10;;;;;;5012189;28;20186;-75
2021/10/27 02:55:34;;;;;;;11.87;4.27;;;13.90;68.70;;;;;;5013059;28;20467;-76
2021/10/27 02:58:00;;;;;;;8.70;4.57;;;13.80;68.70;;;;;;5014883;28;20400;-75
2021/10/27 03:00:27;;;;;;;10.00;4.70;;;13.80;69.30;;;;;;5020873;28;20174;-75
2021/10/27 03:02:53;;;;;;;6.10;4.43;;;13.80;69.60;;;;;;5015942;28;20445;-75
2021/10/27 03:05:20;;;;;;;7.10;4.43;;;13.70;69.80;;;;;;4984906;28;1068543;-74
2021/10/27 03:07:46;;;;;;;7.80;4.53;;;13.80;70.20;;;;;;5016153;28;20187;-75
2021/10/27 03:10:12;;;;;;;11.83;5.17;;;13.70;70.70;;;;;;5013408;28;20452;-76
2021/10/27 03:12:38;;;;;;;6.57;4.80;;;13.80;70.20;;;;;;5012514;28;20507;-76
2021/10/27 03:15:04;;;;;;;6.90;4.73;;;13.70;71.10;;;;;;5010916;28;20197;-76
2021/10/27 03:17:30;;;;;;;11.80;4.60;;;13.70;71.50;;;;;;5019059;28;20575;-76
2021/10/27 03:19:56;;;;;;;9.70;3.87;;;13.70;72.40;;;;;;5011753;28;20831;-77
2021/10/27 03:22:22;;;;;;;13.93;6.03;;;13.60;72.90;;;;;;5012354;28;20415;-77
2021/10/27 03:24:47;;;;;;;10.83;4.90;;;13.60;73.40;;;;;;5011574;28;20197;-76
2021/10/27 03:27:13;;;;;;;23.17;4.50;;;13.60;74.20;;;;;;5001570;28;20192;-76
2021/10/27 03:29:39;;;;;;;9.57;4.30;;;13.50;74.40;;;;;;4997192;28;20178;-76
2021/10/27 03:32:05;;;;;;;7.37;4.80;;;13.60;73.30;;;;;;5012421;28;20477;-75
2021/10/27 03:34:30;;;;;;;11.77;4.40;;;13.60;74.10;;;;;;5012683;28;20446;-77
2021/10/27 03:36:56;;;;;;;6.43;4.70;;;13.50;74.60;;;;;;5013502;28;20419;-77
2021/10/27 03:39:21;;;;;;;15.07;4.10;;;13.40;76.00;;;;;;5013587;28;20173;-77
2021/10/27 03:41:48;;;;;;;8.53;4.47;;;13.50;75.60;;;;;;5013361;28;20186;-76
2021/10/27 03:44:14;;;;;;;11.33;4.67;;;13.40;76.20;;;;;;5015335;28;20556;-76
2021/10/27 03:46:39;;;;;;;12.77;4.63;;;13.40;75.80;;;;;;5013064;28;20436;-76
2021/10/27 03:49:05;;;;;;;13.17;4.73;;;13.50;75.00;;;;;;5013259;28;20512;-76
2021/10/27 03:51:31;;;;;;;9.00;4.97;;;13.40;75.20;;;;;;5013094;28;20206;-76
2021/10/27 03:53:57;;;;;;;17.60;6.00;;;13.40;75.60;;;;;;5012886;28;20170;-77
2021/10/27 03:56:22;;;;;;;8.33;5.20;;;13.40;75.00;;;;;;4993759;28;20201;-77
2021/10/27 03:58:48;;;;;;;9.23;4.43;;;13.40;75.40;;;;;;4994132;28;20181;-76
2021/10/27 04:01:14;;;;;;;7.43;4.23;;;13.40;74.20;;;;;;5009520;28;20190;-77
2021/10/27 04:03:39;;;;;;;5.40;4.20;;;13.40;74.90;;;;;;5014541;28;20212;-76
2021/10/27 04:06:05;;;;;;;6.60;4.60;;;13.30;76.70;;;;;;5013083;28;20225;-76
2021/10/27 04:08:31;;;;;;;11.00;4.63;;;13.30;77.40;;;;;;5008434;28;20196;-76
2021/10/27 04:10:56;;;;;;;15.40;5.27;;;13.30;76.90;;;;;;4993773;28;20771;-76
2021/10/27 04:13:22;;;;;;;11.43;5.00;;;13.40;76.00;;;;;;5000670;28;20176;-76
2021/10/27 04:15:48;;;;;;;8.67;4.70;;;13.40;76.10;;;;;;5012957;28;20226;-76
2021/10/27 04:18:14;;;;;;;12.20;5.87;;;13.40;75.80;;;;;;5012687;28;20409;-76
2021/10/27 04:20:40;;;;;;;19.93;5.27;;;13.30;76.60;;;;;;5012728;28;20435;-77
2021/10/27 04:23:07;;;;;;;12.30;4.90;;;13.30;77.70;;;;;;5013663;28;20188;-78
2021/10/27 04:25:33;;;;;;;7.87;4.40;;;13.30;77.00;;;;;;5012099;28;20559;-76
2021/10/27 04:27:59;;;;;;;14.40;5.00;;;13.30;76.90;;;;;;5017015;28;20416;-77
2021/10/27 04:30:24;;;;;;;10.43;5.17;;;13.30;76.90;;;;;;5016307;28;20189;-75
2021/10/27 04:32:50;;;;;;;10.50;5.13;;;13.40;76.50;;;;;;5015500;28;20459;-76
2021/10/27 04:35:16;;;;;;;14.63;4.60;;;13.50;74.90;;;;;;5016121;28;20225;-77
2021/10/27 04:37:44;;;;;;;11.87;5.30;;;13.50;75.50;;;;;;5016422;28;20177;-77
2021/10/27 04:40:12;;;;;;;9.50;5.60;;;13.50;73.50;;;;;;5016978;28;20256;-77
2021/10/27 04:42:38;;;;;;;10.20;6.20;;;13.50;73.50;;;;;;5015875;28;20490;-76
2021/10/27 04:45:06;;;;;;;16.90;7.30;;;13.50;73.40;;;;;;5016663;28;20479;-77
2021/10/27 04:47:31;;;;;;;11.20;7.03;;;13.60;72.00;;;;;;5016647;28;20838;-78
2021/10/27 04:49:57;;;;;;;10.10;6.70;;;13.50;72.60;;;;;;5015804;28;20411;-77
2021/10/27 04:52:23;;;;;;;7.27;5.60;;;13.40;74.00;;;;;;5016579;28;20214;-77
2021/10/27 04:54:49;;;;;;;19.77;6.83;;;13.40;74.90;;;;;;5016930;28;20515;-77
2021/10/27 04:57:15;;;;;;;13.70;6.17;;;13.40;75.70;;;;;;5016024;28;20525;-76
2021/10/27 04:59:44;;;;;;;12.53;6.73;;;13.40;73.60;;;;;;5017800;28;20567;-78
2021/10/27 05:02:15;;;;;;;13.90;6.00;;;13.40;73.80;;;;;;5018936;28;20236;-78
2021/10/27 05:04:43;;;;;;;10.73;5.53;;;13.50;73.00;;;;;;5011141;28;20442;-77
2021/10/27 05:07:11;;;;;;;12.37;6.70;;;13.50;73.50;;;;;;4995880;28;20423;-75
2021/10/27 05:09:36;;;;;;;12.47;5.70;;;13.40;74.20;;;;;;4995948;28;20412;-76
2021/10/27 05:12:05;;;;;;;17.50;6.23;;;13.40;74.00;;;;;;5015618;28;20561;-79
2021/10/27 05:14:36;;;;;;;11.90;6.17;;;13.40;74.70;;;;;;5018833;28;20228;-77
2021/10/27 05:17:15;;;;;;;11.27;5.77;;;13.40;74.60;;;;;;5023021;28;20448;-77
2021/10/27 05:19:45;;;;;;;24.10;6.53;;;13.30;74.70;;;;;;5017394;28;20395;-78
2021/10/27 05:22:12;;;;;;;15.30;6.27;;;13.30;74.60;;;;;;5020183;28;20395;-77
2021/10/27 05:24:39;;;;;;;13.80;5.60;;;13.30;75.30;;;;;;5022184;28;20691;-78
2021/10/27 05:27:06;;;;;;;11.23;5.53;;;13.30;74.50;;;;;;5009128;28;20460;-77
2021/10/27 05:29:32;;;;;;;18.63;6.00;;;13.40;73.70;;;;;;5001913;28;20439;-75
2021/10/27 05:31:58;;;;;;;21.97;7.03;;;13.40;73.50;;;;;;5020451;28;20577;-77
2021/10/27 05:34:24;;;;;;;21.47;5.10;;;13.30;73.30;;;;;;5020396;28;20469;-76
2021/10/27 05:36:50;;;;;;;11.03;6.77;;;13.30;73.60;;;;;;5017507;28;20180;-76
2021/10/27 05:39:17;;;;;;;13.30;5.87;;;13.40;73.20;;;;;;5018485;28;20428;-76
2021/10/27 05:41:44;;;;;;;14.10;6.33;;;13.40;71.50;;;;;;5018441;28;20444;-76
2021/10/27 05:44:11;;;;;;;13.60;6.70;;;13.40;71.80;;;;;;5010635;28;20491;-76
2021/10/27 05:46:37;;;;;;;11.50;6.10;;;13.40;72.20;;;;;;5010381;28;20423;-77
2021/10/27 05:49:09;;;;;;;11.63;6.07;;;13.30;73.10;;;;;;5010274;28;20419;-78
2021/10/27 05:51:45;;;;;;;30.17;7.17;;;13.30;72.80;;;;;;5012985;28;20468;-77
2021/10/27 05:56:55;;;;;;;15.90;5.83;;;13.30;72.60;;;;;;5028797;28;20409;-77
2021/10/27 05:59:20;;;;;;;13.03;5.70;;;13.40;71.70;;;;;;5027936;28;20419;-77
2021/10/27 06:01:46;;;;;;;9.93;5.23;;;13.40;70.50;;;;;;5027652;28;20295;-76
2021/10/27 06:04:11;;;;;;;8.40;4.70;;;13.40;69.40;;;;;;5023861;28;20177;-77
2021/10/27 06:06:37;;;;;;;31.07;8.43;;;13.50;68.60;;;;;;5020144;28;20196;-78
2021/10/27 06:09:03;;;;;;;10.60;5.23;;;13.50;68.70;;;;;;5013776;28;20185;-78
2021/10/27 06:11:29;;;;;;;10.27;4.93;;;13.50;69.30;;;;;;5002771;28;20468;-77
2021/10/27 06:13:55;;;;;;;9.50;5.40;;;13.50;68.10;;;;;;5015249;28;20416;-78
2021/10/27 06:16:21;;;;;;;17.50;6.00;;;13.50;67.70;;;;;;5019586;28;20561;-76
2021/10/27 06:18:47;;;;;;;13.30;5.70;;;13.50;67.10;;;;;;5020098;28;20264;-77
2021/10/27 06:21:14;;;;;;;12.90;5.10;;;13.50;67.20;;;;;;5019005;28;20183;-77
2021/10/27 06:23:40;;;;;;;12.20;5.40;;;13.50;66.60;;;;;;5021201;28;20265;-77
2021/10/27 06:26:07;;;;;;;9.27;4.70;;;13.50;67.00;;;;;;5028422;28;20535;-77
2021/10/27 06:28:41;;;;;;;11.40;5.53;;;13.50;67.10;;;;;;5021127;28;20416;-76
2021/10/27 06:31:10;;;;;;;11.03;5.60;;;13.50;67.10;;;;;;5012322;28;20460;-76
2021/10/27 06:33:50;;;;;;;14.10;5.20;;;13.50;67.50;;;;;;4997081;28;20757;-76
2021/10/27 06:36:36;;;;;;;18.10;4.07;;;13.50;67.10;;;;;;5024221;28;20477;-79
2021/10/27 06:46:59;;;;;;;8.77;5.10;;;13.60;64.00;;;;;;5017675;28;20476;-77
2021/10/27 06:49:25;;;;;;;16.27;5.50;;;13.50;64.60;;;;;;5014538;28;20431;-75
2021/10/27 06:51:50;;;;;;;8.97;5.60;;;13.60;64.20;;;;;;5015259;28;20204;-76
2021/10/27 06:54:16;;;;;;;12.57;5.80;;;13.70;63.00;;;;;;5016548;28;20188;-77
2021/10/27 06:56:42;;;;;;;254.07;138.97;;;13.70;62.70;;;;;;5016184;28;20186;-78
2021/10/27 06:59:12;;;;;;;245.77;128.70;;;13.80;62.00;;;;;;5009685;28;20424;-76
2021/10/27 07:04:30;;;;;;;31.23;12.80;;;13.80;59.60;;;;;;5010588;28;20535;-76
2021/10/27 07:15:31;;;;;;;10.10;4.53;;;13.90;59.00;;;;;;5010945;28;20498;-77
2021/10/27 07:17:57;;;;;;;14.00;5.30;;;13.90;58.60;;;;;;5012203;28;20489;-75
2021/10/27 07:20:24;;;;;;;7.67;4.73;;;13.90;57.40;;;;;;5013086;28;20991;-74
2021/10/27 07:22:51;;;;;;;9.90;5.13;;;13.90;57.70;;;;;;5004552;28;20193;-76
2021/10/27 07:25:16;;;;;;;9.83;5.33;;;13.90;57.00;;;;;;5012341;28;20440;-75
2021/10/27 07:27:45;;;;;;;12.23;5.20;;;13.90;56.90;;;;;;5008413;28;20396;-77
2021/10/27 07:30:10;;;;;;;14.30;7.33;;;13.90;56.80;;;;;;4998807;28;20457;-76
2021/10/27 07:32:36;;;;;;;8.57;4.93;;;13.90;56.90;;;;;;5004410;28;20500;-76
2021/10/27 07:35:14;;;;;;;19.83;5.03;;;14.00;57.10;;;;;;5004751;28;20447;-75
2021/10/27 07:40:44;;;;;;;8.23;4.10;;;14.10;54.60;;;;;;5008123;28;20451;-76
2021/10/27 07:43:16;;;;;;;6.50;4.37;;;14.10;54.40;;;;;;5011827;28;20399;-75
2021/10/27 07:45:43;;;;;;;10.00;4.67;;;14.10;54.20;;;;;;5007129;28;20457;-75
2021/10/27 07:48:09;;;;;;;7.43;4.17;;;14.20;53.40;;;;;;5003835;28;20431;-76
2021/10/27 07:50:37;;;;;;;9.63;5.03;;;14.10;54.40;;;;;;5010565;28;20393;-76
2021/10/27 07:53:05;;;;;;;6.70;4.40;;;14.10;54.20;;;;;;5013073;28;20466;-75
2021/10/27 07:55:31;;;;;;;9.53;4.30;;;14.10;53.20;;;;;;5011612;28;20415;-76
2021/10/27 07:57:57;;;;;;;7.33;4.60;;;14.20;52.00;;;;;;5008026;28;20396;-76
2021/10/27 08:00:24;;;;;;;9.17;4.10;;;14.20;52.10;;;;;;5010599;28;20419;-75
2021/10/27 08:02:51;;;;;;;7.90;3.93;;;14.20;51.80;;;;;;5014173;28;20438;-75
2021/10/27 08:05:20;;;;;;;15.37;5.30;;;14.20;51.70;;;;;;5006699;28;20898;-75
2021/10/27 08:07:48;;;;;;;15.50;4.37;;;14.10;52.10;;;;;;5012951;28;20443;-75
2021/10/27 08:10:21;;;;;;;6.27;3.53;;;14.20;52.20;;;;;;5009783;28;20467;-74
2021/10/27 08:12:49;;;;;;;3.67;3.37;;;14.20;51.00;;;;;;5015573;28;20443;-76
2021/10/27 08:15:15;;;;;;;5.33;3.60;;;14.20;51.30;;;;;;5011362;28;20445;-76
2021/10/27 08:17:41;;;;;;;7.33;3.70;;;14.20;50.80;;;;;;5011548;28;20476;-76
2021/10/27 08:20:09;;;;;;;10.63;3.53;;;14.20;50.80;;;;;;5009819;28;20846;-77
2021/10/27 08:22:35;;;;;;;12.63;3.80;;;14.30;50.60;;;;;;5009967;28;20480;-76
2021/10/27 08:25:06;;;;;;;9.30;3.70;;;14.30;50.10;;;;;;5011118;28;20448;-76
2021/10/27 08:27:35;;;;;;;23.37;5.23;;;14.40;50.20;;;;;;5029954;28;20442;-75
2021/10/27 08:30:06;;;;;;;12.30;4.53;;;14.50;48.50;;;;;;5010227;28;20425;-77
2021/10/27 08:35:13;;;;;;;8.20;4.03;;;14.40;48.60;;;;;;5006513;28;20507;-75
2021/10/27 08:37:48;;;;;;;7.27;4.50;;;14.40;48.20;;;;;;5004973;28;20487;-76
2021/10/27 08:40:20;;;;;;;18.93;5.13;;;14.50;47.80;;;;;;5008538;28;20430;-75
2021/10/27 08:42:46;;;;;;;6.50;3.60;;;14.50;47.60;;;;;;5009648;28;20482;-76
2021/10/27 08:45:13;;;;;;;8.10;3.90;;;14.50;47.70;;;;;;4993033;28;20527;-77
2021/10/27 08:47:40;;;;;;;12.23;3.97;;;14.50;47.30;;;;;;5010630;28;20489;-78
2021/10/27 08:50:12;;;;;;;9.53;4.37;;;14.70;46.30;;;;;;5011307;28;20403;-78
2021/10/27 08:52:39;;;;;;;13.37;4.60;;;14.70;46.70;;;;;;5007711;28;20466;-76
2021/10/27 08:55:05;;;;;;;9.07;4.30;;;14.70;46.60;;;;;;5000867;28;20504;-76
2021/10/27 08:57:31;;;;;;;7.83;4.50;;;14.70;46.50;;;;;;5005584;28;20396;-75
2021/10/27 09:42:03;;;;;;;6.43;4.37;;;15.20;43.30;;;;;;5014567;28;20306;-75
2021/10/27 10:06:46;;;;;;;11.57;4.80;;;16.30;38.70;;;;;;5000855;28;20450;-76
2021/10/27 10:09:13;;;;;;;11.53;4.90;;;16.40;38.40;;;;;;5014529;28;20419;-75
2021/10/27 10:11:39;;;;;;;7.50;3.80;;;16.50;37.70;;;;;;5008962;28;20459;-74
2021/10/27 10:14:07;;;;;;;14.20;4.50;;;16.50;37.40;;;;;;5008113;28;20415;-75
2021/10/27 10:16:38;;;;;;;13.60;4.20;;;16.70;37.20;;;;;;5014620;28;20407;-75
2021/10/27 10:19:07;;;;;;;6.07;4.10;;;16.70;37.40;;;;;;5014016;28;20415;-75
2021/10/27 10:21:39;;;;;;;6.10;3.40;;;16.80;36.50;;;;;;5014217;28;20440;-75
2021/10/27 10:24:17;;;;;;;11.37;4.33;;;17.00;36.20;;;;;;5012745;28;20760;-76
2021/10/27 10:26:44;;;;;;;9.17;3.87;;;17.10;35.50;;;;;;5000078;28;20909;-76
2021/10/27 10:29:10;;;;;;;5.87;3.90;;;17.20;35.30;;;;;;4994714;28;20929;-74
2021/10/27 10:31:36;;;;;;;14.80;4.30;;;17.40;34.90;;;;;;5015559;28;20463;-77
2021/10/27 10:34:11;;;;;;;15.53;4.27;;;17.50;34.50;;;;;;5015558;28;20430;-74
2021/10/27 10:36:41;;;;;;;14.30;4.07;;;17.70;34.00;;;;;;5014333;28;20836;-75
2021/10/27 10:39:50;;;;;;;14.93;4.27;;;17.60;33.80;;;;;;5014844;28;20399;-74
2021/10/27 10:45:48;;;;;;;10.57;4.23;;;17.20;34.90;;;;;;5014646;28;20525;-74
2021/10/27 11:23:44;;;;;;;9.43;3.40;;;17.10;35.00;;;;;;5013051;28;20410;-76
2021/10/27 11:40:09;;;;;;;5.33;2.93;;;17.30;34.20;;;;;;5003969;28;20596;-75
2021/10/27 11:42:42;;;;;;;3.43;2.53;;;17.30;33.90;;;;;;5002542;28;20419;-76
2021/10/27 11:48:01;;;;;;;16.97;5.00;;;17.50;33.80;;;;;;5006711;28;20446;-77
2021/10/27 11:50:36;;;;;;;4.47;2.80;;;17.50;33.80;;;;;;5002855;28;20518;-77
2021/10/27 11:53:05;;;;;;;9.77;3.23;;;17.50;33.80;;;;;;5011654;28;20560;-77
2021/10/27 11:55:37;;;;;;;8.63;3.10;;;17.70;33.40;;;;;;5009403;28;20936;-78
2021/10/27 11:58:04;;;;;;;9.27;3.13;;;18.00;32.50;;;;;;5002613;28;20942;-77
2021/10/27 12:00:41;;;;;;;8.80;3.40;;;18.10;32.20;;;;;;5013745;28;20415;-77
2021/10/27 12:03:14;;;;;;;5.50;2.33;;;18.30;31.50;;;;;;5011798;28;20467;-77
2021/10/27 12:05:51;;;;;;;13.17;3.67;;;18.30;30.60;;;;;;5001270;28;20459;-77
2021/10/27 12:16:37;;;;;;;7.93;3.30;;;18.50;29.60;;;;;;5004277;28;20967;-75
2021/10/27 12:19:25;;;;;;;7.70;3.10;;;18.60;29.60;;;;;;5009083;28;20514;-77
2021/10/27 12:22:05;;;;;;;8.63;3.27;;;18.70;29.50;;;;;;5011173;28;20469;-76
2021/10/27 12:24:33;;;;;;;6.10;3.17;;;18.80;29.20;;;;;;5026911;28;20510;-76
2021/10/27 12:27:03;;;;;;;7.10;2.90;;;18.90;28.90;;;;;;5018011;28;20449;-77
2021/10/27 12:29:33;;;;;;;19.07;2.63;;;19.00;28.80;;;;;;5012971;28;20450;-79
2021/10/27 12:32:13;;;;;;;10.40;4.13;;;19.10;28.70;;;;;;5013178;28;20779;-77
2021/10/27 12:35:12;;;;;;;12.20;2.60;;;19.10;28.60;;;;;;5013422;28;20850;-78
2021/10/27 12:40:24;;;;;;;5.90;2.80;;;19.20;28.00;;;;;;5017169;28;20446;-77
2021/10/27 12:43:14;;;;;;;3.73;3.17;;;19.10;28.20;;;;;;5016527;28;20432;-78
2021/10/27 12:45:46;;;;;;;8.87;2.43;;;19.30;28.10;;;;;;5008217;28;20497;-77
2021/10/27 12:48:20;;;;;;;6.13;2.57;;;19.50;27.10;;;;;;5014084;28;20991;-79
2021/10/27 12:50:58;;;;;;;6.27;2.77;;;19.70;27.10;;;;;;5016408;28;20443;-77
2021/10/27 12:53:41;;;;;;;6.60;3.40;;;19.60;26.90;;;;;;5007103;28;20423;-76
2021/10/27 12:56:21;;;;;;;8.53;3.17;;;19.50;27.30;;;;;;5014396;28;20437;-78
2021/10/27 12:58:55;;;;;;;5.87;2.77;;;19.50;27.50;;;;;;5018541;28;20418;-77
2021/10/27 13:11:52;;;;;;;7.37;3.40;;;19.40;28.10;;;;;;5010576;28;20346;-77
2021/10/27 13:30:19;;;;;;;3.27;2.17;;;19.30;26.40;;;;;;5015778;28;20498;-76
2021/10/27 13:32:53;;;;;;;7.63;2.90;;;19.30;26.40;;;;;;5014776;28;20463;-76
2021/10/27 13:35:19;;;;;;;7.53;1.97;;;19.20;27.30;;;;;;5015470;28;20514;-77
2021/10/27 13:37:47;;;;;;;7.57;2.67;;;19.20;26.70;;;;;;5016668;28;20461;-77
2021/10/27 13:40:12;;;;;;;11.60;2.73;;;19.20;27.40;;;;;;5015354;28;20423;-75
2021/10/27 13:48:13;;;;;;;16.30;2.60;;;19.20;27.00;;;;;;4997432;28;20454;-76
2021/10/27 13:58:46;;;;;;;10.77;1.97;;;19.50;26.50;;;;;;4995559;28;20912;-77
2021/10/27 14:06:50;;;;;;;11.53;2.47;;;19.70;26.60;;;;;;5013108;28;20438;-76
2021/10/27 14:12:18;;;;;;;4.93;2.07;;;19.70;26.20;;;;;;4980706;28;21047;-76
2021/10/27 14:47:22;;;;;;;9.63;2.90;;;19.30;27.00;;;;;;5015011;28;20940;-79
2021/10/27 15:19:56;;;;;;;5.97;3.10;;;20.10;24.60;;;;;;5022044;28;20843;-77
2021/10/27 15:35:45;;;;;;;5.53;2.77;;;17.70;30.90;;;;;;5020974;28;20509;-78
2021/10/27 15:52:07;;;;;;;8.93;4.83;;;16.90;34.20;;;;;;5000793;28;20839;-79
2021/10/27 15:54:33;;;;;;;7.27;2.07;;;16.70;34.50;;;;;;5019833;28;20451;-79
2021/10/27 15:56:59;;;;;;;4.83;2.77;;;16.60;34.80;;;;;;5018314;28;20849;-76
2021/10/27 15:59:27;;;;;;;4.90;2.43;;;16.50;35.00;;;;;;5018352;28;20431;-78
2021/10/27 16:01:52;;;;;;;5.47;2.80;;;16.40;35.40;;;;;;5019462;28;20180;-77
2021/10/27 16:04:18;;;;;;;5.87;3.13;;;16.30;36.00;;;;;;5025132;28;20473;-77
2021/10/27 16:06:50;;;;;;;8.20;3.70;;;16.20;36.50;;;;;;5017977;28;20180;-78
2021/10/27 16:09:16;;;;;;;6.90;2.90;;;16.00;37.20;;;;;;5023260;28;20207;-78
2021/10/27 16:11:42;;;;;;;6.80;2.03;;;16.00;37.60;;;;;;5022094;28;20436;-77
2021/10/27 16:14:08;;;;;;;6.00;2.30;;;15.90;38.20;;;;;;5021661;28;20801;-77
2021/10/27 16:16:34;;;;;;;11.77;2.67;;;15.70;39.00;;;;;;5017656;28;20422;-79
2021/10/27 16:19:00;;;;;;;4.73;2.57;;;15.50;39.60;;;;;;5016965;28;20187;-80
2021/10/27 16:21:27;;;;;;;5.07;2.40;;;15.30;40.60;;;;;;5010989;28;20250;-76
2021/10/27 16:23:53;;;;;;;7.30;2.43;;;15.20;41.80;;;;;;5032016;28;20413;-76
2021/10/27 16:26:21;;;;;;;10.33;2.57;;;15.10;42.60;;;;;;5019540;28;20424;-75
2021/10/27 16:28:47;;;;;;;9.10;2.40;;;15.00;43.50;;;;;;5019194;28;20435;-78
2021/10/27 16:31:13;;;;;;;10.93;3.33;;;14.80;45.30;;;;;;5012595;28;20407;-75
2021/10/27 16:33:41;;;;;;;7.97;3.40;;;14.70;46.60;;;;;;5015575;28;20440;-76
2021/10/27 16:36:06;;;;;;;9.57;3.13;;;14.70;47.80;;;;;;5023243;28;20213;-75
2021/10/27 16:38:32;;;;;;;5.07;3.10;;;14.70;48.20;;;;;;5023141;28;20415;-79
2021/10/27 16:40:58;;;;;;;11.63;3.50;;;14.60;49.50;;;;;;5017012;28;20182;-82
2021/10/27 16:43:24;;;;;;;6.97;3.33;;;14.60;50.60;;;;;;5011364;28;20186;-79
2021/10/27 16:45:51;;;;;;;11.13;3.90;;;14.50;50.80;;;;;;5009880;28;20200;-79
2021/10/27 16:48:17;;;;;;;8.07;4.93;;;14.50;51.80;;;;;;4998517;28;20423;-78
2021/10/27 16:50:43;;;;;;;12.33;4.60;;;14.40;52.20;;;;;;5004560;28;20436;-77
2021/10/27 16:53:08;;;;;;;6.00;4.07;;;14.40;52.50;;;;;;5017532;28;20301;-77
2021/10/27 16:55:34;;;;;;;10.53;4.67;;;14.50;52.20;;;;;;5015538;28;20206;-76
2021/10/27 16:58:01;;;;;;;18.33;4.47;;;14.50;52.20;;;;;;5014008;28;20190;-77
2021/10/27 17:00:29;;;;;;;7.97;5.13;;;14.50;51.50;;;;;;5015500;28;20197;-78
2021/10/27 17:02:55;;;;;;;11.03;5.10;;;14.50;51.50;;;;;;5009117;28;20396;-79
2021/10/27 17:05:21;;;;;;;10.00;6.33;;;14.40;51.50;;;;;;4999681;28;20476;-79
2021/10/27 17:07:47;;;;;;;7.57;4.97;;;14.30;52.20;;;;;;5015902;28;20255;-79
2021/10/27 17:10:14;;;;;;;11.77;4.47;;;14.30;52.10;;;;;;5021754;28;20420;-78
2021/10/27 17:12:40;;;;;;;8.50;4.13;;;14.40;51.00;;;;;;5017700;28;20213;-77
2021/10/27 17:15:08;;;;;;;7.53;4.17;;;14.50;51.00;;;;;;5018074;28;20450;-76
2021/10/27 17:17:33;;;;;;;11.50;4.60;;;14.30;51.40;;;;;;5014632;28;20433;-77
2021/10/27 17:19:59;;;;;;;10.33;3.80;;;14.30;51.80;;;;;;5015233;28;20404;-78
2021/10/27 17:22:27;;;;;;;16.47;5.10;;;14.30;51.90;;;;;;5012146;28;20233;-78
2021/10/27 17:24:54;;;;;;;9.30;3.90;;;14.20;52.40;;;;;;5013951;28;20205;-77
2021/10/27 17:27:21;;;;;;;14.90;4.27;;;14.10;52.90;;;;;;5016488;28;20810;-79
2021/10/27 17:29:47;;;;;;;11.03;3.17;;;14.10;53.50;;;;;;5028804;28;20492;-78
2021/10/27 17:32:13;;;;;;;8.90;4.20;;;14.00;53.30;;;;;;5028758;28;20937;-77
2021/10/27 17:34:39;;;;;;;9.20;4.00;;;14.00;54.00;;;;;;5017910;28;20443;-78
2021/10/27 17:37:05;;;;;;;12.83;3.93;;;13.90;54.50;;;;;;5022665;28;20185;-76
2021/10/27 17:39:34;;;;;;;8.63;3.90;;;13.80;55.20;;;;;;5023050;28;20507;-80
2021/10/27 17:42:00;;;;;;;4.70;3.90;;;13.70;55.70;;;;;;5017187;28;20188;-79